Pagrindinis puslapis
METAR-TAF:

METAR-TAF

Oro uostai :

Evenes, Norvegija

platuma: 68-31N, ilguma: 016-41E, Aukštis: 26 m

Dabartinis oras

Ataskaita buvo paskelbta 20 minutes, ne 09:50 UTC
Vėjas 12 kt iš Šiaurės
Temperatūra 1°C
Drėgmė 86%
Slėgis 974 hPa
Matomumas 10 km arba daugiau
Su prošvaistėmis ne aukštis 3600 ft

METAR: ENEV 180950Z 35012KT 9999 BKN036 01/M01 Q0974 RMK WIND 1400FT 01021KT

Laikas: 11:10 (10:10 UTC)

Prognozė

Ataskaita buvo paskelbta 2 valandos ir 10 minutes, ne 08:00 UTC
Prognozė galioja nuo 18 metu 09 UTC su 18 metu 18 UTC
Vėjas 9 kt iš Šiaurės
Matomumas 10 km arba daugiau
Mažai debesys ne aukštis 1000 ft
Su prošvaistėmis ne aukštis 2500 ft
Laikinai
nuo 18 metu 09 UTC su 18 metu 15 UTC
Vėjas 15 kt iš Šiaurės su gūsio iki 25 kt
Matomumas: 3000 m
ne aukštis 800 ft
sniegas

TAF: ENEV 180800Z 1809/1818 01009KT 9999 FEW010 BKN025 TEMPO 1809/1815 36015G25KT 3000 -SHSN VV008

Orai ataskaitas ir orų prognozės (METAR, TAF).

turimą stotys yra geltonos ir raudonos taškus žemėlapyje.

Perkelti pele per norėdami pamatyti stoties vardą.

Tada spustelėkite, norėdami matyti oro stebėjimo ir prognozės.

Norėdami pakeisti žemėlapį: spustelėkite ant žalios mygtukų su juodo kryžiaus žemyn,; žalią mygtuką su brūkšneliu, jei norite nutolinti; arba žalių rodyklių gretimoms žemėlapius.


METAR-TAF: